• Join FlightAware (Why Join?)
  • Login
  • US Flag 
11:12PM EDT


 

Airport Tracker/Info


-or-


 

Live Flight TrackerFlight Track Log ✈ N50KC ✈ 08-Sep-2013 ✈ KOXC - KDTW

Flight Track Log - Related Links

Times and Time Zones

All times are in EDT time to prevent confusion due to time zone crossing. See the N50KC flight status page for this flight to view local times or setup timezone preferences in your user account.

Time Position Orientation Groundspeed Altitude Reporting Facility
EDT Latitude Longitude Course Direction KTS MPH feet Rate Location/Type
05:08PM 41.4833 -73.1833 279° West 219 252 3,700  Level New York TRACON
05:09PM 41.4500 -73.1186 124° Southeast 273 314 5,000 840 Climbing Boston Center
05:10PM 41.4961 -73.1053 12° North 241 277 5,300 420 Climbing Boston Center
05:10PM 41.5086 -73.1025 North 260 299 5,400 2,040 Climbing Boston Center
05:11PM 41.5606 -73.1031 360° North 242 278 7,200 2,040 Climbing Boston Center
05:12PM 41.6628 -73.0819 North 295 339 10,000 1,800 Climbing Boston Center
05:13PM 41.7442 -73.0800 North 310 357 11,500 2,760 Climbing Boston Center
05:14PM 41.5547 -73.8010 279° West  Level Estimated
05:14PM 41.8525 -73.1033 351° North 346 398 15,600  Level Boston Center
05:15PM 41.9461 -73.1239 351° North 374 430 18,700 3,360 Climbing Boston Center
05:16PM 42.0625 -73.1531 349° North 374 430 22,300 3,300 Climbing Boston Center
05:17PM 42.1539 -73.2356 326° Northwest 379 436 25,200 2,700 Climbing Boston Center
05:18PM 42.2089 -73.3706 299° West 369 425 27,800 2,520 Climbing Boston Center
05:19PM 42.2619 -73.5172 296° West 406 467 30,300 2,520 Climbing Boston Center
05:20PM 42.3125 -73.6558 296° West 414 476 32,900 2,580 Climbing Boston Center
05:21PM 42.3589 -73.8083 292° West 426 490 35,500 2,640 Climbing Boston Center
05:22PM 42.4072 -73.9444 296° West 421 484 38,100 1,860 Climbing Boston Center
05:23PM 42.4531 -74.0806 295° West 402 463 39,200 1,080 Climbing Boston Center
05:24PM 42.5033 -74.2114 298° West 402 463 40,300 1,020 Climbing Boston Center
05:25PM 42.5981 -74.2761 333° Northwest 379 436 41,300 960 Climbing Boston Center
05:26PM 42.7164 -74.3053 350° North 380 437 42,300 840 Climbing Boston Center
05:27PM 42.8306 -74.3342 349° North 398 458 43,000 300 Climbing Boston Center
05:28PM 42.9511 -74.3606 268° West 422 486 43,000  Level Boston Center
05:29PM 42.8258 -74.4945 268° West  Level Estimated
05:29PM 43.0717 -74.3842 352° North 433 498 43,000  Level Boston Center
05:30PM 43.1900 -74.4136 350° North 433 498 43,000 -60 Level Boston Center
05:31PM 43.2778 -74.5078 322° Northwest 395 455 42,900  Descending Boston Center
05:32PM 43.3103 -74.6600 286° West 382 440 43,000  Climbing Boston Center
05:33PM 43.2967 -74.8250 264° West 381 438 43,000  Level Boston Center
05:34PM 43.2806 -74.9897 262° West 410 472 43,000  Level Boston Center
05:35PM 43.2714 -75.1236 265° West 430 495 43,000  Level Boston Center
05:36PM 43.2564 -75.3053 264° West 442 509 43,000  Level Boston Center
05:37PM 43.2414 -75.4814 263° West 455 524 43,000  Level Boston Center
05:38PM 43.2286 -75.6433 264° West 449 517 43,000  Level Boston Center
05:39PM 43.2133 -75.8106 263° West 444 511 43,000  Level Boston Center
05:41PM 43.1836 -76.1439 263° West 440 506 43,000  Level Cleveland Center
05:42PM 43.1669 -76.3103 262° West 445 512 43,000  Level Cleveland Center
05:43PM 43.1525 -76.4819 263° West 450 518 43,000  Level Cleveland Center
05:44PM 43.1372 -76.6453 263° West 450 518 43,000  Level Cleveland Center
05:45PM 43.1219 -76.8086 263° West 445 512 43,000  Level Cleveland Center
05:46PM 43.1064 -76.9772 263° West 450 518 43,000  Level Cleveland Center
05:47PM 43.0864 -77.1461 261° West 450 518 43,000  Level Cleveland Center
05:48PM 43.0747 -77.3117 265° West 450 518 43,000  Level Cleveland Center
05:49PM 43.0564 -77.4803 262° West 450 518 43,000  Level Cleveland Center
05:50PM 43.0378 -77.6489 261° West 450 518 43,000  Level Cleveland Center
05:51PM 43.0211 -77.8172 262° West 450 518 43,000  Level Cleveland Center
05:52PM 43.0022 -77.9856 261° West 450 518 43,000  Level Cleveland Center
05:53PM 42.9828 -78.1567 261° West 450 518 43,000  Level Cleveland Center
05:54PM 42.9639 -78.3447 262° West 457 526 43,000  Level Cleveland Center
05:55PM 42.9461 -78.5128 262° West 457 526 43,000  Level Cleveland Center
05:56PM 42.9261 -78.6806 261° West 457 526 43,000  Level Cleveland Center
05:57PM 42.9014 -78.8458 259° West 451 519 43,000 -480 Level Cleveland Center
05:58PM 42.8789 -79.0081 259° West 451 519 42,100 -1,800 Descending Cleveland Center
05:59PM 42.8558 -79.1700 259° West 451 519 39,500 -2,640 Descending Cleveland Center
06:00PM 42.8286 -79.3347 257° West 446 513 36,900 -2,580 Descending Cleveland Center
06:01PM 42.8072 -79.4964 260° West 446 513 34,400 -2,340 Descending Cleveland Center
06:02PM 42.7839 -79.6639 259° West 446 513 32,300 -2,100 Descending Cleveland Center
06:03PM 42.7600 -79.8253 259° West 451 519 30,300 -1,800 Descending Cleveland Center
06:04PM 42.7503 -79.9528 264° West 446 513 28,700 -1,200 Descending Cleveland Center
06:05PM 42.7386 -80.1422 265° West 435 501 28,000 -360 Descending Cleveland Center
06:06PM 42.7308 -80.2978 266° West 420 483 28,000  Level Cleveland Center
06:07PM 42.7247 -80.4531 267° West 420 483 28,000  Level Cleveland Center
06:08PM 42.7186 -80.6142 267° West 431 496 28,000 -240 Level Cleveland Center
06:09PM 42.7122 -80.7697 267° West 426 490 27,600 -960 Descending Cleveland Center
06:10PM 42.7014 -80.9250 265° West 416 479 26,100 -1,500 Descending Cleveland Center
06:11PM 42.6864 -81.0775 262° West 410 472 24,600 -1,080 Descending Cleveland Center
06:12PM 42.6689 -81.2269 261° West 404 465 24,000 -300 Descending Cleveland Center
06:13PM 42.6514 -81.3736 261° West 409 471 24,000  Level Cleveland Center
06:14PM 42.6356 -81.5144 261° West 414 476 24,000  Level Cleveland Center
06:15PM 42.6156 -81.6722 260° West 414 476 24,000 -960 Level Cleveland Center
06:16PM 42.5975 -81.8186 261° West 412 474 22,100 -2,040 Descending Cleveland Center
06:17PM 42.5789 -81.9675 260° West 405 466 20,000 -2,100 Descending Cleveland Center
06:18PM 42.5625 -82.1083 261° West 400 460 18,000 -2,100 Descending Cleveland Center
06:19PM 42.5533 -82.1814 260° West 379 436 17,000 -2,040 Descending Cleveland Center
06:19PM 42.5461 -82.2458 261° West 389 448 16,000 -2,100 Descending Cleveland Center
06:20PM 42.5367 -82.3161 260° West 366 421 15,100 -1,920 Descending Cleveland Center
06:20PM 42.5275 -82.3806 259° West 377 434 14,100 -1,920 Descending Cleveland Center
06:21PM 42.5222 -82.4481 264° West 355 409 13,200 -1,800 Descending Cleveland Center
06:21PM 42.5128 -82.5097 258° West 367 422 12,300 -1,200 Descending Cleveland Center
06:22PM 42.4972 -82.5742 252° West 348 400 12,000 -300 Descending Cleveland Center
06:22PM 42.4775 -82.6297 244° Southwest 354 407 12,000  Level Cleveland Center
06:23PM 42.4553 -82.6939 245° Southwest 349 402 12,000  Level Cleveland Center
06:23PM 42.4356 -82.7494 244° Southwest 354 407 12,000  Level Cleveland Center
06:24PM 42.4178 -82.8050 247° West 350 403 12,000  Level Cleveland Center
06:24PM 42.3939 -82.8606 240° Southwest 349 402 12,000  Level Cleveland Center
06:25PM 42.3825 -82.9050 251° West 262 302 12,000  Level Cleveland Center
06:25PM 42.3631 -82.9464 238° Southwest 307 353 12,000  Level Cleveland Center
06:26PM 42.3472 -82.9964 247° West 243 280 12,000  Level Cleveland Center
06:26PM 42.3342 -83.0297 242° Southwest 268 308 12,000  Level Cleveland Center
06:27PM 42.3164 -83.0794 244° Southwest 243 280 12,000  Level Cleveland Center
06:27PM 42.3053 -83.1100 244° Southwest 253 291 12,000  Level Cleveland Center
06:28PM 42.2853 -83.1653 244° Southwest 244 281 12,000  Level Cleveland Center
06:28PM 42.2619 -83.1783 202° Southwest 242 278 12,000 -420 Level Cleveland Center
06:29PM 42.2197 -83.2047 205° Southwest 248 285 11,600 -1,320 Descending Cleveland Center
06:30PM 42.1564 -83.2442 205° Southwest 253 291 10,000 -1,560 Descending Cleveland Center
06:31PM 42.0908 -83.2806 202° Southwest 248 285 8,500 -1,500 Descending Cleveland Center
06:32PM 42.0333 -83.3342 215° Southwest 242 278 7,000 -1,620 Descending Cleveland Center
06:33PM 41.9819 -83.3878 218° Southwest 237 273 5,300 -1,500 Descending Cleveland Center
06:34PM 41.9306 -83.4386 216° Southwest 220 253 4,000 -660 Descending Cleveland Center
06:35PM 41.9247 -83.5025 263° West 183 211 4,000  Level Cleveland Center
06:36PM 41.9725 -83.5131 351° North 180 207 4,000  Level Cleveland Center
06:37PM 42.0233 -83.4817 25° Northeast 176 203 4,000 -240 Level Cleveland Center
06:38PM 42.0658 -83.4475 31° Northeast 174 200 3,500 -720 Descending Cleveland Center
06:39PM 42.1106 -83.4158 28° Northeast 173 199 2,600 -840 Descending Cleveland Center
06:41PM 42.1783 -83.3656 29° Northeast 123 142 1,000 -840 Descending Cleveland Center